createdAt,value
2018-07-17T00:00:13.019Z,98861.50
2018-07-17T00:00:44.256Z,98865.48
2018-07-17T00:01:15.465Z,98863.69
2018-07-17T00:01:46.686Z,98857.19
2018-07-17T00:02:17.860Z,98863.33
2018-07-17T00:02:49.040Z,98863.48
2018-07-17T00:03:20.272Z,98861.28
2018-07-17T00:03:51.494Z,98860.92
2018-07-17T00:04:22.678Z,98860.45
2018-07-17T00:04:53.852Z,98861.07
2018-07-17T00:05:25.155Z,98852.27
2018-07-17T00:05:56.352Z,98854.70
2018-07-17T00:06:27.531Z,98849.64
2018-07-17T00:06:58.711Z,98853.27
2018-07-17T00:07:29.956Z,98848.96
2018-07-17T00:08:01.147Z,98847.05
2018-07-17T00:08:32.358Z,98846.84
2018-07-17T00:09:03.538Z,98852.41
2018-07-17T00:09:34.847Z,98851.58
2018-07-17T00:10:06.026Z,98847.59
2018-07-17T00:10:37.360Z,98847.09
2018-07-17T00:11:08.596Z,98843.11
2018-07-17T00:11:39.824Z,98849.61
2018-07-17T00:12:10.998Z,98843.53
2018-07-17T00:12:42.261Z,98847.27
2018-07-17T00:13:13.405Z,98849.28
2018-07-17T00:13:44.637Z,98850.36
2018-07-17T00:14:15.837Z,98854.20
2018-07-17T00:14:47.107Z,98850.94
2018-07-17T00:15:18.288Z,98853.09
2018-07-17T00:15:49.467Z,98854.42
2018-07-17T00:16:20.644Z,98853.38
2018-07-17T00:16:51.817Z,98854.20
2018-07-17T00:17:23.037Z,98856.72
2018-07-17T00:17:54.273Z,98859.38
2018-07-17T00:18:25.485Z,98852.73
2018-07-17T00:18:56.677Z,98859.38
2018-07-17T00:19:27.854Z,98858.91
2018-07-17T00:19:59.081Z,98859.53
2018-07-17T00:20:30.269Z,98856.66
2018-07-17T00:21:01.485Z,98854.28
2018-07-17T00:21:32.708Z,98849.72
2018-07-17T00:22:03.875Z,98851.16
2018-07-17T00:22:35.049Z,98848.17
2018-07-17T00:23:06.228Z,98852.16
2018-07-17T00:23:37.395Z,98856.05
2018-07-17T00:24:08.570Z,98853.67
2018-07-17T00:24:39.805Z,98853.31
2018-07-17T00:25:11.080Z,98855.61
2018-07-17T00:25:42.321Z,98852.59
2018-07-17T00:26:13.553Z,98849.72
2018-07-17T00:26:44.787Z,98849.61
2018-07-17T00:27:16.123Z,98851.41
2018-07-17T00:27:47.306Z,98849.72
2018-07-17T00:28:18.484Z,98853.84
2018-07-17T00:28:49.929Z,98843.97
2018-07-17T00:29:21.104Z,98848.31
2018-07-17T00:29:52.416Z,98850.47
2018-07-17T00:30:23.737Z,98843.75
2018-07-17T00:30:54.961Z,98845.61
2018-07-17T00:31:26.889Z,98847.47
2018-07-17T00:31:58.157Z,98848.97
2018-07-17T00:32:29.395Z,98849.75
2018-07-17T00:33:00.586Z,98843.11
2018-07-17T00:33:31.801Z,98843.44
2018-07-17T00:34:03.012Z,98847.53
2018-07-17T00:34:34.184Z,98849.69
2018-07-17T00:35:05.350Z,98848.72
2018-07-17T00:35:36.541Z,98846.78
2018-07-17T00:36:07.761Z,98841.11
2018-07-17T00:36:38.939Z,98846.06
2018-07-17T00:37:10.166Z,98845.20
2018-07-17T00:37:41.386Z,98845.48
2018-07-17T00:38:12.625Z,98843.36
2018-07-17T00:38:43.865Z,98848.17
2018-07-17T00:39:15.049Z,98847.63
2018-07-17T00:39:46.261Z,98847.76
2018-07-17T00:40:17.477Z,98845.70
2018-07-17T00:40:48.652Z,98844.77
2018-07-17T00:41:26.076Z,98845.04
2018-07-17T00:41:57.815Z,98854.34
2018-07-17T00:42:29.048Z,98849.39
2018-07-17T00:43:00.312Z,98847.09
2018-07-17T00:43:31.541Z,98846.88
2018-07-17T00:44:02.779Z,98844.22
2018-07-17T00:44:40.031Z,98843.85
2018-07-17T00:45:11.280Z,98852.19
2018-07-17T00:45:42.461Z,98848.42
2018-07-17T00:46:13.643Z,98850.94
2018-07-17T00:46:44.814Z,98851.52
2018-07-17T00:47:15.995Z,98852.46
2018-07-17T00:47:47.168Z,98851.36
2018-07-17T00:48:18.350Z,98850.39
2018-07-17T00:48:49.520Z,98851.61
2018-07-17T00:49:20.704Z,98851.33
2018-07-17T00:49:51.926Z,98849.50
2018-07-17T00:50:23.148Z,98851.08
2018-07-17T00:50:54.319Z,98848.42
2018-07-17T00:51:25.540Z,98840.92
2018-07-17T00:51:56.718Z,98841.64
2018-07-17T00:52:27.943Z,98841.28
2018-07-17T00:52:59.161Z,98839.01
2018-07-17T00:53:30.401Z,98839.76
2018-07-17T00:54:01.591Z,98832.81
2018-07-17T00:54:32.813Z,98832.42
2018-07-17T00:55:04.011Z,98833.53
2018-07-17T00:55:35.286Z,98837.16
2018-07-17T00:56:06.486Z,98832.53
2018-07-17T00:56:37.719Z,98837.52
2018-07-17T00:57:08.944Z,98839.95
2018-07-17T00:57:40.124Z,98840.91
2018-07-17T00:58:11.288Z,98840.57
2018-07-17T00:58:42.529Z,98847.94
2018-07-17T00:59:13.765Z,98846.02
2018-07-17T00:59:45.008Z,98843.95
2018-07-17T01:00:16.193Z,98845.41
2018-07-17T01:00:47.503Z,98840.84
2018-07-17T01:01:18.689Z,98842.94
2018-07-17T01:01:49.976Z,98847.19
2018-07-17T01:02:21.165Z,98850.00
2018-07-17T01:02:52.340Z,98845.92
2018-07-17T01:03:23.514Z,98848.44
2018-07-17T01:03:54.747Z,98848.08
2018-07-17T01:04:25.985Z,98849.08
2018-07-17T01:04:57.217Z,98843.19
2018-07-17T01:05:28.397Z,98838.71
2018-07-17T01:05:59.620Z,98842.00
2018-07-17T01:06:30.803Z,98844.20
2018-07-17T01:07:02.020Z,98843.47
2018-07-17T01:07:33.237Z,98843.08
2018-07-17T01:08:04.417Z,98835.75
2018-07-17T01:08:35.596Z,98843.97
2018-07-17T01:09:07.006Z,98840.20
2018-07-17T01:09:38.207Z,98846.28
2018-07-17T01:10:09.950Z,98845.69
2018-07-17T01:10:41.197Z,98850.63
2018-07-17T01:11:12.400Z,98845.23
2018-07-17T01:11:43.577Z,98848.25
2018-07-17T01:12:14.812Z,98845.36
2018-07-17T01:12:46.002Z,98847.42
2018-07-17T01:13:17.239Z,98850.41
2018-07-17T01:13:48.521Z,98853.69
2018-07-17T01:14:19.705Z,98842.84
2018-07-17T01:14:50.869Z,98846.09
2018-07-17T01:15:22.053Z,98848.61
2018-07-17T01:15:53.236Z,98846.59
2018-07-17T01:16:24.414Z,98844.41
2018-07-17T01:16:55.596Z,98847.19
2018-07-17T01:17:26.768Z,98846.70
2018-07-17T01:17:58.133Z,98846.23
2018-07-17T01:18:29.323Z,98846.59
2018-07-17T01:19:00.536Z,98846.92
2018-07-17T01:19:31.717Z,98850.30
2018-07-17T01:20:02.897Z,98851.27
2018-07-17T01:20:34.130Z,98858.63
2018-07-17T01:21:05.326Z,98855.02
2018-07-17T01:21:36.573Z,98854.05
2018-07-17T01:22:07.761Z,98851.73
2018-07-17T01:22:38.934Z,98853.42
2018-07-17T01:23:10.129Z,98851.95
2018-07-17T01:23:41.514Z,98848.98
2018-07-17T01:24:12.757Z,98854.97
2018-07-17T01:24:43.945Z,98852.32
2018-07-17T01:25:15.172Z,98858.48
2018-07-17T01:25:46.394Z,98854.61
2018-07-17T01:26:17.589Z,98849.94
2018-07-17T01:26:48.773Z,98850.07
2018-07-17T01:27:19.952Z,98849.21
2018-07-17T01:27:51.135Z,98851.03
2018-07-17T01:28:22.304Z,98852.00
2018-07-17T01:28:53.533Z,98851.16
2018-07-17T01:29:24.800Z,98853.81
2018-07-17T01:29:55.990Z,98850.67
2018-07-17T01:30:27.221Z,98851.27
2018-07-17T01:30:58.405Z,98848.61
2018-07-17T01:31:29.583Z,98845.50
2018-07-17T01:32:00.780Z,98852.49
2018-07-17T01:32:32.004Z,98847.66
2018-07-17T01:33:03.188Z,98848.98
2018-07-17T01:33:34.412Z,98848.61
2018-07-17T01:34:05.604Z,98845.00
2018-07-17T01:34:36.972Z,98847.66
2018-07-17T01:35:08.216Z,98839.47
2018-07-17T01:35:39.403Z,98843.58
2018-07-17T01:36:10.625Z,98836.45
2018-07-17T01:36:41.817Z,98836.45
2018-07-17T01:37:13.042Z,98835.72
2018-07-17T01:37:44.220Z,98842.58
2018-07-17T01:38:15.437Z,98845.96
2018-07-17T01:38:46.625Z,98843.77
2018-07-17T01:39:17.869Z,98843.77
2018-07-17T01:39:49.095Z,98842.94
2018-07-17T01:40:20.281Z,98846.42
2018-07-17T01:40:51.518Z,98835.81
2018-07-17T01:41:22.758Z,98836.91
2018-07-17T01:41:53.944Z,98846.28
2018-07-17T01:42:25.111Z,98844.36
2018-07-17T01:42:56.406Z,98848.44
2018-07-17T01:43:27.610Z,98850.95
2018-07-17T01:43:58.807Z,98845.31
2018-07-17T01:44:29.985Z,98852.78
2018-07-17T01:45:01.198Z,98851.45
2018-07-17T01:45:32.424Z,98851.22
2018-07-17T01:46:03.607Z,98854.70
2018-07-17T01:46:34.787Z,98852.91
2018-07-17T01:47:05.980Z,98857.59
2018-07-17T01:47:37.200Z,98858.81
2018-07-17T01:48:08.368Z,98857.81
2018-07-17T01:48:39.648Z,98853.14
2018-07-17T01:49:10.827Z,98858.91
2018-07-17T01:49:41.999Z,98852.41
2018-07-17T01:50:13.206Z,98851.95
2018-07-17T01:50:44.371Z,98850.73
2018-07-17T01:51:15.555Z,98849.30
2018-07-17T01:51:46.860Z,98845.91
2018-07-17T01:52:18.112Z,98844.72
2018-07-17T01:52:49.358Z,98843.77
2018-07-17T01:53:20.544Z,98838.95
2018-07-17T01:53:51.731Z,98839.92
2018-07-17T01:54:22.903Z,98846.55
2018-07-17T01:54:54.177Z,98833.66
2018-07-17T01:55:25.356Z,98837.27
2018-07-17T01:55:56.529Z,98837.27
2018-07-17T01:56:27.701Z,98832.42
2018-07-17T01:56:58.874Z,98829.41
2018-07-17T01:57:30.082Z,98827.75
2018-07-17T01:58:01.313Z,98829.08
2018-07-17T01:58:32.512Z,98826.89
2018-07-17T01:59:03.687Z,98837.04
2018-07-17T01:59:34.878Z,98836.54
2018-07-17T02:00:06.052Z,98835.58
2018-07-17T02:00:37.267Z,98834.61
2018-07-17T02:01:08.501Z,98827.98
2018-07-17T02:01:39.737Z,98831.00
2018-07-17T02:02:10.920Z,98825.33
2018-07-17T02:02:42.091Z,98817.84
2018-07-17T02:03:13.312Z,98818.94
2018-07-17T02:03:44.541Z,98817.97
2018-07-17T02:04:15.948Z,98820.63
2018-07-17T02:04:47.138Z,98826.76
2018-07-17T02:05:18.389Z,98829.55
2018-07-17T02:05:49.576Z,98834.48
2018-07-17T02:06:20.751Z,98838.59
2018-07-17T02:06:51.924Z,98837.91
2018-07-17T02:07:23.102Z,98844.17
2018-07-17T02:07:54.373Z,98844.27
2018-07-17T02:08:25.556Z,98846.92
2018-07-17T02:08:56.788Z,98849.71
2018-07-17T02:09:27.982Z,98845.50
2018-07-17T02:09:59.169Z,98850.34
2018-07-17T02:10:30.409Z,98849.61
2018-07-17T02:11:01.634Z,98843.61
2018-07-17T02:11:32.816Z,98846.49
2018-07-17T02:12:03.981Z,98849.05
2018-07-17T02:12:35.232Z,98845.66
2018-07-17T02:13:06.404Z,98849.27
2018-07-17T02:13:37.629Z,98846.29
2018-07-17T02:14:08.850Z,98849.05
2018-07-17T02:14:40.076Z,98847.25
2018-07-17T02:15:11.305Z,98851.23
2018-07-17T02:15:42.660Z,98854.58
2018-07-17T02:16:13.885Z,98848.81
2018-07-17T02:16:45.118Z,98853.25
2018-07-17T02:17:16.296Z,98853.25
2018-07-17T02:17:47.536Z,98852.42
2018-07-17T02:18:18.721Z,98850.27
2018-07-17T02:18:49.968Z,98860.02
2018-07-17T02:19:21.190Z,98857.86
2018-07-17T02:19:52.368Z,98860.64
2018-07-17T02:20:23.597Z,98860.28
2018-07-17T02:20:54.777Z,98854.02
2018-07-17T02:21:25.951Z,98859.55
2018-07-17T02:21:57.179Z,98852.66
2018-07-17T02:22:28.364Z,98858.80
2018-07-17T02:22:59.669Z,98851.56
2018-07-17T02:23:30.857Z,98858.30
2018-07-17T02:24:02.121Z,98855.64
2018-07-17T02:24:33.390Z,98854.42
2018-07-17T02:25:04.583Z,98851.77
2018-07-17T02:25:35.761Z,98860.09
2018-07-17T02:26:06.982Z,98858.63
2018-07-17T02:26:38.173Z,98854.78
2018-07-17T02:27:09.392Z,98892.88
2018-07-17T02:27:40.572Z,98854.91
2018-07-17T02:28:11.756Z,98851.41
2018-07-17T02:28:42.936Z,98850.57
2018-07-17T02:29:14.112Z,98847.78
2018-07-17T02:29:45.344Z,98852.00
2018-07-17T02:30:16.528Z,98855.74
2018-07-17T02:30:47.753Z,98852.00
2018-07-17T02:31:18.936Z,98850.77
2018-07-17T02:31:50.327Z,98849.94
2018-07-17T02:32:21.615Z,98853.42
2018-07-17T02:32:52.872Z,98856.07
2018-07-17T02:33:24.203Z,98854.38
2018-07-17T02:33:55.441Z,98859.09
2018-07-17T02:34:26.702Z,98854.52
2018-07-17T02:34:57.879Z,98850.89
2018-07-17T02:35:29.131Z,98851.36
2018-07-17T02:36:00.365Z,98853.52
2018-07-17T02:36:31.548Z,98849.30
2018-07-17T02:37:02.805Z,98844.82
2018-07-17T02:37:34.037Z,98847.97
2018-07-17T02:38:05.220Z,98852.51
2018-07-17T02:38:36.490Z,98852.88
2018-07-17T02:39:07.685Z,98853.59
2018-07-17T02:39:38.909Z,98857.22
2018-07-17T02:40:10.141Z,98849.75
2018-07-17T02:40:41.369Z,98852.64
2018-07-17T02:41:12.549Z,98853.00
2018-07-17T02:41:43.779Z,98851.67
2018-07-17T02:42:15.121Z,98845.03
2018-07-17T02:42:46.354Z,98848.39
2018-07-17T02:43:17.613Z,98844.89
2018-07-17T02:43:48.853Z,98846.34
2018-07-17T02:44:20.054Z,98841.86
2018-07-17T02:44:51.517Z,98844.56
2018-07-17T02:45:22.706Z,98845.37
2018-07-17T02:45:53.989Z,98846.37
2018-07-17T02:46:25.179Z,98845.73
2018-07-17T02:46:56.358Z,98841.32
2018-07-17T02:47:27.545Z,98843.70
2018-07-17T02:47:58.741Z,98843.56
2018-07-17T02:48:30.317Z,98845.02
2018-07-17T02:49:01.513Z,98847.04
2018-07-17T02:49:32.680Z,98844.14
2018-07-17T02:50:03.948Z,98843.51
2018-07-17T02:50:35.140Z,98846.53
2018-07-17T02:51:06.362Z,98841.58
2018-07-17T02:51:37.554Z,98840.75
2018-07-17T02:52:08.743Z,98844.59
2018-07-17T02:52:39.961Z,98850.87
2018-07-17T02:53:11.144Z,98843.78
2018-07-17T02:53:42.404Z,98847.53
2018-07-17T02:54:13.595Z,98844.56
2018-07-17T02:54:44.765Z,98843.34
2018-07-17T02:55:16.041Z,98843.97
2018-07-17T02:55:47.228Z,98845.30
2018-07-17T02:56:18.451Z,98837.20
2018-07-17T02:56:49.628Z,98839.72
2018-07-17T02:57:20.849Z,98843.93
2018-07-17T02:57:52.985Z,98836.56
2018-07-17T02:58:24.156Z,98842.00
2018-07-17T02:58:55.326Z,98839.71
2018-07-17T02:59:26.509Z,98841.27
2018-07-17T02:59:57.682Z,98838.89
2018-07-17T03:00:28.905Z,98838.53
2018-07-17T03:01:00.158Z,98840.22
2018-07-17T03:01:31.342Z,98844.20
2018-07-17T03:02:02.516Z,98836.60
2018-07-17T03:02:33.692Z,98837.93
2018-07-17T03:03:04.948Z,98842.87
2018-07-17T03:03:36.128Z,98838.89
2018-07-17T03:04:07.344Z,98845.16
2018-07-17T03:04:38.516Z,98838.17
2018-07-17T03:05:09.798Z,98843.08
2018-07-17T03:05:40.984Z,98840.82
2018-07-17T03:06:12.209Z,98841.75
2018-07-17T03:06:43.454Z,98840.92
2018-07-17T03:07:14.702Z,98840.70
2018-07-17T03:07:46.049Z,98839.97
2018-07-17T03:08:17.228Z,98842.53
2018-07-17T03:08:48.457Z,98842.40
2018-07-17T03:09:19.637Z,98840.84
2018-07-17T03:09:50.815Z,98836.03
2018-07-17T03:10:22.036Z,98838.96
2018-07-17T03:10:53.224Z,98839.33
2018-07-17T03:11:24.518Z,98844.27
2018-07-17T03:11:55.744Z,98838.14
2018-07-17T03:12:26.969Z,98838.97
2018-07-17T03:12:58.201Z,98838.63
2018-07-17T03:13:29.381Z,98846.23
2018-07-17T03:14:00.610Z,98845.27
2018-07-17T03:14:31.859Z,98843.45
2018-07-17T03:15:03.049Z,98733.22
2018-07-17T03:15:34.277Z,98846.46
2018-07-17T03:16:05.455Z,98847.33
2018-07-17T03:16:36.627Z,98849.84
2018-07-17T03:17:07.856Z,98852.86
2018-07-17T03:17:39.077Z,98854.19
2018-07-17T03:18:10.307Z,98854.42
2018-07-17T03:18:41.574Z,98850.20
2018-07-17T03:19:12.756Z,98848.42
2018-07-17T03:19:43.933Z,98843.45
2018-07-17T03:20:15.177Z,98857.94
2018-07-17T03:20:46.418Z,98851.66
2018-07-17T03:21:17.698Z,98851.53
2018-07-17T03:21:48.879Z,98852.23
2018-07-17T03:22:20.105Z,98849.48
2018-07-17T03:22:51.277Z,98852.83
2018-07-17T03:23:22.528Z,98858.86
2018-07-17T03:23:53.764Z,98855.97
2018-07-17T03:24:24.965Z,98853.55
2018-07-17T03:24:56.159Z,98856.84
2018-07-17T03:25:27.337Z,98854.91
2018-07-17T03:25:58.567Z,98854.91
2018-07-17T03:26:29.856Z,98852.39
2018-07-17T03:27:01.038Z,98847.42
2018-07-17T03:27:32.217Z,98846.23
2018-07-17T03:28:03.392Z,98842.58
2018-07-17T03:28:34.576Z,98845.23
2018-07-17T03:29:05.920Z,98837.59
2018-07-17T03:29:37.228Z,98838.91
2018-07-17T03:30:08.438Z,98837.18
2018-07-17T03:30:39.615Z,98833.79
2018-07-17T03:31:10.827Z,98831.53
2018-07-17T03:31:42.095Z,98831.89
2018-07-17T03:32:13.269Z,98831.88
2018-07-17T03:32:44.445Z,98828.89
2018-07-17T03:33:15.631Z,98830.45
2018-07-17T03:33:46.821Z,98827.20
2018-07-17T03:34:17.992Z,98828.62
2018-07-17T03:34:49.201Z,98831.02
2018-07-17T03:35:20.368Z,98828.45
2018-07-17T03:35:51.597Z,98837.96
2018-07-17T03:36:22.794Z,98827.66
2018-07-17T03:36:54.053Z,98830.16
2018-07-17T03:37:25.250Z,98832.30
2018-07-17T03:37:56.469Z,98830.23
2018-07-17T03:38:27.649Z,98829.78
2018-07-17T03:38:58.894Z,98830.66
2018-07-17T03:39:30.076Z,98828.76
2018-07-17T03:40:01.297Z,98826.62
2018-07-17T03:40:32.525Z,98817.98
2018-07-17T03:41:03.702Z,98827.87
2018-07-17T03:41:34.877Z,98824.66
2018-07-17T03:42:06.114Z,98819.83
2018-07-17T03:42:37.341Z,98822.12
2018-07-17T03:43:08.534Z,98822.36
2018-07-17T03:43:39.715Z,98821.30
2018-07-17T03:44:10.937Z,98819.75
2018-07-17T03:44:42.152Z,98822.17
2018-07-17T03:45:13.320Z,98824.09
2018-07-17T03:45:44.520Z,98831.00
2018-07-17T03:46:15.688Z,98830.41
2018-07-17T03:46:46.856Z,98831.83
2018-07-17T03:47:18.086Z,98835.25
2018-07-17T03:47:49.333Z,98841.88
2018-07-17T03:48:20.528Z,98841.98
2018-07-17T03:48:51.750Z,98842.95
2018-07-17T03:49:22.937Z,98838.00
2018-07-17T03:49:54.436Z,98844.63
2018-07-17T03:50:25.624Z,98844.17
2018-07-17T03:50:56.838Z,98841.38
2018-07-17T03:51:28.050Z,98844.40
2018-07-17T03:51:59.217Z,98846.42
2018-07-17T03:52:30.437Z,98841.84
2018-07-17T03:53:01.617Z,98845.59
2018-07-17T03:53:32.788Z,98846.91
2018-07-17T03:54:03.965Z,98845.09
2018-07-17T03:54:35.133Z,98847.61
2018-07-17T03:55:06.363Z,98847.14
2018-07-17T03:55:37.600Z,98848.34
2018-07-17T03:56:08.776Z,98846.51
2018-07-17T03:56:39.940Z,98843.70
2018-07-17T03:57:11.144Z,98839.66
2018-07-17T03:57:42.316Z,98840.26
2018-07-17T03:58:13.499Z,98833.11
2018-07-17T03:58:45.201Z,98835.08
2018-07-17T03:59:16.396Z,98832.77
2018-07-17T03:59:47.601Z,98834.51
2018-07-17T04:00:18.822Z,98834.19
2018-07-17T04:00:50.147Z,98825.03
2018-07-17T04:01:21.357Z,98828.55
2018-07-17T04:01:52.579Z,98832.21
2018-07-17T04:02:23.753Z,98832.89
2018-07-17T04:02:55.101Z,98827.06
2018-07-17T04:03:26.349Z,98833.64
2018-07-17T04:03:57.580Z,98831.31
2018-07-17T04:04:28.806Z,98827.44
2018-07-17T04:05:00.036Z,98827.26
2018-07-17T04:05:31.210Z,98833.72
2018-07-17T04:06:02.386Z,98836.45
2018-07-17T04:06:33.587Z,98833.60
2018-07-17T04:07:04.795Z,98837.55
2018-07-17T04:07:36.004Z,98835.08
2018-07-17T04:08:07.258Z,98830.88
2018-07-17T04:08:38.459Z,98836.10
2018-07-17T04:09:09.656Z,98841.66
2018-07-17T04:09:40.876Z,98840.97
2018-07-17T04:10:12.048Z,98842.19
2018-07-17T04:10:43.273Z,98842.83
2018-07-17T04:11:14.456Z,98842.02
2018-07-17T04:11:45.798Z,98838.78
2018-07-17T04:12:16.972Z,98837.92
2018-07-17T04:12:48.265Z,98837.83
2018-07-17T04:13:19.464Z,98838.19
2018-07-17T04:13:50.652Z,98835.53
2018-07-17T04:14:21.826Z,98838.91
2018-07-17T04:14:53.093Z,98837.09
2018-07-17T04:15:24.286Z,98836.81
2018-07-17T04:15:55.456Z,98839.36
2018-07-17T04:16:26.633Z,98833.55
2018-07-17T04:16:57.869Z,98838.72
2018-07-17T04:17:29.049Z,98834.50
2018-07-17T04:18:00.224Z,98834.22
2018-07-17T04:18:31.428Z,98838.31
2018-07-17T04:19:02.603Z,98832.37
2018-07-17T04:19:33.821Z,98830.07
2018-07-17T04:20:05.006Z,98824.76
2018-07-17T04:20:36.190Z,98828.74
2018-07-17T04:21:07.366Z,98827.41
2018-07-17T04:21:38.592Z,98828.08
2018-07-17T04:22:09.773Z,98829.70
2018-07-17T04:22:40.998Z,98825.16
2018-07-17T04:23:12.181Z,98828.77
2018-07-17T04:23:43.352Z,98825.97
2018-07-17T04:24:14.520Z,98829.66
2018-07-17T04:24:45.748Z,98826.06
2018-07-17T04:25:16.920Z,98829.52
2018-07-17T04:25:48.107Z,98826.16
2018-07-17T04:26:19.284Z,98826.44
2018-07-17T04:26:50.456Z,98833.48
2018-07-17T04:27:21.631Z,98834.70
2018-07-17T04:27:52.802Z,98831.20
2018-07-17T04:28:24.030Z,98834.97
2018-07-17T04:28:55.372Z,98837.34
2018-07-17T04:29:26.549Z,98840.13
2018-07-17T04:29:57.813Z,98839.56
2018-07-17T04:30:29.050Z,98833.22
2018-07-17T04:31:00.280Z,98843.23
2018-07-17T04:31:31.549Z,98838.18
2018-07-17T04:32:02.724Z,98835.20
2018-07-17T04:32:33.896Z,98830.45
2018-07-17T04:33:05.066Z,98837.34
2018-07-17T04:33:36.240Z,98836.02
2018-07-17T04:34:07.419Z,98835.89
2018-07-17T04:34:38.612Z,98836.09
2018-07-17T04:35:09.796Z,98839.81
2018-07-17T04:35:40.973Z,98837.63
2018-07-17T04:36:12.250Z,98840.47
2018-07-17T04:36:43.437Z,98832.88
2018-07-17T04:37:14.716Z,98836.59
2018-07-17T04:37:45.897Z,98831.41
2018-07-17T04:38:17.094Z,98838.02
2018-07-17T04:38:48.350Z,98834.61
2018-07-17T04:39:19.600Z,98838.40
2018-07-17T04:39:50.820Z,98840.26
2018-07-17T04:40:22.003Z,98841.84
2018-07-17T04:40:53.191Z,98841.95
2018-07-17T04:41:24.426Z,98846.88
2018-07-17T04:41:55.609Z,98848.42
2018-07-17T04:42:26.785Z,98828.22
2018-07-17T04:42:58.124Z,98848.68
2018-07-17T04:43:29.378Z,98851.44
2018-07-17T04:44:00.564Z,98850.38
2018-07-17T04:44:31.776Z,98854.28
2018-07-17T04:45:02.956Z,98848.63
2018-07-17T04:45:34.194Z,98849.87
2018-07-17T04:46:05.392Z,98855.64
2018-07-17T04:46:36.830Z,98850.19
2018-07-17T04:47:08.020Z,98846.62
2018-07-17T04:47:39.205Z,98848.57
2018-07-17T04:48:10.398Z,98849.19
2018-07-17T04:48:41.669Z,98840.58
2018-07-17T04:49:14.556Z,98841.85
2018-07-17T04:49:47.652Z,98842.06
2018-07-17T04:50:18.840Z,98842.03
2018-07-17T04:50:50.061Z,98845.62
2018-07-17T04:51:21.343Z,98833.89
2018-07-17T04:51:52.597Z,98842.86
2018-07-17T04:52:23.803Z,98842.37
2018-07-17T04:52:55.021Z,98841.98
2018-07-17T04:53:26.214Z,98840.77
2018-07-17T04:53:57.553Z,98840.21
2018-07-17T04:54:28.724Z,98840.61
2018-07-17T04:54:59.986Z,98838.73
2018-07-17T04:55:31.269Z,98841.23
2018-07-17T04:56:02.455Z,98836.68
2018-07-17T04:56:33.649Z,98838.84
2018-07-17T04:57:04.845Z,98838.73
2018-07-17T04:57:36.029Z,98833.91
2018-07-17T04:58:07.222Z,98832.77
2018-07-17T04:58:38.456Z,98831.67
2018-07-17T04:59:09.692Z,98827.77
2018-07-17T04:59:40.918Z,98832.47
2018-07-17T05:00:12.120Z,98831.70
2018-07-17T05:00:43.401Z,98833.10
2018-07-17T05:01:14.628Z,98832.06
2018-07-17T05:01:45.891Z,98831.53
2018-07-17T05:02:17.085Z,98832.63
2018-07-17T05:02:48.427Z,98831.62
2018-07-17T05:03:19.609Z,98827.11
2018-07-17T05:03:50.805Z,98805.98
2018-07-17T05:04:22.148Z,98821.84
2018-07-17T05:04:53.386Z,98828.56
2018-07-17T05:05:24.564Z,98821.64
2018-07-17T05:05:55.829Z,98824.00
2018-07-17T05:06:27.021Z,98818.08
2018-07-17T05:06:58.200Z,98813.03
2018-07-17T05:07:29.388Z,98810.81
2018-07-17T05:08:00.782Z,98813.53
2018-07-17T05:08:32.089Z,98811.92
2018-07-17T05:09:03.321Z,98813.38
2018-07-17T05:09:35.440Z,98808.88
2018-07-17T05:10:06.681Z,98812.16
2018-07-17T05:10:37.878Z,98809.89
2018-07-17T05:11:09.062Z,98811.87
2018-07-17T05:11:40.409Z,98810.60
2018-07-17T05:12:12.357Z,98815.98
2018-07-17T05:12:43.533Z,98811.77
2018-07-17T05:13:14.716Z,98810.48
2018-07-17T05:13:45.896Z,98813.09
2018-07-17T05:14:17.089Z,98811.93
2018-07-17T05:14:48.266Z,98809.69
2018-07-17T05:15:19.468Z,98809.48
2018-07-17T05:15:50.644Z,98812.24
2018-07-17T05:16:21.883Z,98810.67
2018-07-17T05:16:53.188Z,98808.80
2018-07-17T05:17:24.383Z,98806.50
2018-07-17T05:17:55.591Z,98806.57
2018-07-17T05:18:26.772Z,98804.14
2018-07-17T05:18:57.940Z,98811.61
2018-07-17T05:19:29.177Z,98806.36
2018-07-17T05:20:00.356Z,98803.66
2018-07-17T05:20:31.532Z,98801.90
2018-07-17T05:21:02.709Z,98802.48
2018-07-17T05:21:33.928Z,98804.07
2018-07-17T05:22:05.198Z,98807.84
2018-07-17T05:22:36.951Z,98806.72
2018-07-17T05:23:08.226Z,98806.64
2018-07-17T05:23:39.419Z,98802.53
2018-07-17T05:24:10.604Z,98809.36
2018-07-17T05:24:41.788Z,98808.05
2018-07-17T05:25:13.028Z,98810.05
2018-07-17T05:25:44.266Z,98806.89
2018-07-17T05:26:15.520Z,98804.30
2018-07-17T05:26:46.936Z,98804.70
2018-07-17T05:27:18.153Z,98807.62
2018-07-17T05:27:49.429Z,98806.81
2018-07-17T05:28:20.620Z,98809.07
2018-07-17T05:28:51.864Z,98811.77
2018-07-17T05:29:24.523Z,98811.34
2018-07-17T05:29:55.724Z,98808.55
2018-07-17T05:30:26.988Z,98806.38
2018-07-17T05:30:58.177Z,98806.00
2018-07-17T05:31:29.365Z,98806.77
2018-07-17T05:32:00.548Z,98802.35
2018-07-17T05:32:31.821Z,98800.62
2018-07-17T05:33:03.073Z,98800.50
2018-07-17T05:33:34.257Z,98798.80
2018-07-17T05:34:05.509Z,98805.00
2018-07-17T05:34:36.698Z,98801.39
2018-07-17T05:35:07.965Z,98806.36
2018-07-17T05:35:39.173Z,98798.72
2018-07-17T05:36:10.353Z,98798.15
2018-07-17T05:36:41.552Z,98800.81
2018-07-17T05:37:13.868Z,98797.80
2018-07-17T05:37:45.121Z,98797.09
2018-07-17T05:38:16.322Z,98795.74
2018-07-17T05:38:47.527Z,98797.05
2018-07-17T05:39:18.709Z,98793.34
2018-07-17T05:39:49.960Z,98793.92
2018-07-17T05:40:21.161Z,98799.06
2018-07-17T05:40:52.393Z,98799.42
2018-07-17T05:41:23.656Z,98799.30
2018-07-17T05:41:54.866Z,98797.91
2018-07-17T05:42:26.059Z,98795.70
2018-07-17T05:42:57.318Z,98794.55
2018-07-17T05:43:28.502Z,98794.47
2018-07-17T05:43:59.697Z,98797.75
2018-07-17T05:44:30.920Z,98798.73
2018-07-17T05:45:02.105Z,98798.37
2018-07-17T05:45:33.344Z,98800.73
2018-07-17T05:46:04.604Z,98805.80
2018-07-17T05:46:35.891Z,98802.02
2018-07-17T05:47:07.042Z,98802.27
2018-07-17T05:47:38.301Z,98804.07
2018-07-17T05:48:09.548Z,98802.15
2018-07-17T05:48:40.733Z,98802.48
2018-07-17T05:49:11.921Z,98809.30
2018-07-17T05:49:43.103Z,98809.30
2018-07-17T05:50:14.298Z,98808.17
2018-07-17T05:50:45.462Z,98805.67
2018-07-17T05:51:16.693Z,98803.06
2018-07-17T05:51:47.913Z,98807.12
2018-07-17T05:52:19.125Z,98814.44
2018-07-17T05:52:50.334Z,98811.09
2018-07-17T05:53:21.569Z,98810.48
2018-07-17T05:53:52.810Z,98815.03
2018-07-17T05:54:24.017Z,98809.89
2018-07-17T05:54:55.221Z,98815.27
2018-07-17T05:55:26.408Z,98818.34
2018-07-17T05:55:57.618Z,98810.05
2018-07-17T05:56:28.873Z,98813.53
2018-07-17T05:57:00.053Z,98820.02
2018-07-17T05:57:31.295Z,98810.61
2018-07-17T05:58:03.293Z,98812.95
2018-07-17T05:58:34.509Z,98818.46
2018-07-17T05:59:05.750Z,98819.17
2018-07-17T05:59:36.938Z,98813.13
2018-07-17T06:00:09.154Z,98815.47
2018-07-17T06:00:40.427Z,98809.42
2018-07-17T06:01:11.631Z,98813.42
2018-07-17T06:01:42.865Z,98814.31
2018-07-17T06:02:14.058Z,98807.91
2018-07-17T06:02:47.070Z,98805.73
2018-07-17T06:03:18.383Z,98806.89
2018-07-17T06:03:49.637Z,98806.73
2018-07-17T06:04:21.589Z,98804.72
2018-07-17T06:04:53.646Z,98804.38
2018-07-17T06:05:24.842Z,98805.40
2018-07-17T06:05:56.106Z,98801.41
2018-07-17T06:06:27.645Z,98797.70
2018-07-17T06:06:58.852Z,98793.34